Time;durP1;ratioP1;P1;durP2;ratioP2;P2;SDS_P1;SDS_P2;PMS_P1;PMS_P2;Temp;Humidity;BMP_temperature;BMP_pressure;BME280_temperature;BME280_humidity;BME280_pressure;Samples;Min_cycle;Max_cycle;Signal;HPM_P1;HPM_P2
2022/09/06 00:00:55;;;;;;;;;;;;;;;20.37;75.42;101626.00;4979448;28;19929;-75
2022/09/06 00:03:21;;;;;;;;;;;;;;;20.40;75.53;101623.09;5010633;28;19933;-75
2022/09/06 00:05:46;;;;;;;;;;;;;;;20.42;75.63;101623.00;4978901;28;19930;-75
2022/09/06 00:08:13;;;;;;;;;;;;;;;20.42;75.68;101625.69;5008796;28;19930;-75
2022/09/06 00:10:38;;;;;;;;;;;;;;;20.42;75.38;101626.53;4979868;28;20848;-76
2022/09/06 00:13:04;;;;;;;;;;;;;;;20.41;75.79;101611.38;4994796;28;20500;-75
2022/09/06 00:15:30;;;;;;;;;;;;;;;20.39;75.67;101616.00;5008762;28;19929;-75
2022/09/06 00:17:59;;;;;;;;;;;;;;;20.34;76.36;101610.97;5010134;28;20498;-74
2022/09/06 00:20:26;;;;;;;;;;;;;;;20.31;76.22;101613.00;5008017;28;19926;-75
2022/09/06 00:22:54;;;;;;;;;;;;;;;20.28;76.01;101618.63;4977110;28;19925;-74
2022/09/06 00:25:20;;;;;;;;;;;;;;;20.26;75.99;101612.53;4978255;28;20401;-74
2022/09/06 00:27:46;;;;;;;;;;;;;;;20.25;75.98;101608.97;4975267;28;19969;-75
2022/09/06 00:30:11;;;;;;;;;;;;;;;20.22;76.42;101603.84;4975994;28;20029;-75
2022/09/06 00:32:37;;;;;;;;;;;;;;;20.20;76.26;101603.94;4977683;28;20017;-74
2022/09/06 00:35:02;;;;;;;;;;;;;;;20.18;76.19;101607.72;4989852;28;19934;-74
2022/09/06 00:37:28;;;;;;;;;;;;;;;20.16;76.71;101591.69;4976280;28;20040;-75
2022/09/06 00:39:53;;;;;;;;;;;;;;;20.14;75.94;101595.47;5009336;28;20029;-75
2022/09/06 00:42:18;;;;;;;;;;;;;;;20.12;76.31;101597.41;4990911;28;19934;-74
2022/09/06 00:44:44;;;;;;;;;;;;;;;20.09;76.85;101593.13;4977388;28;19934;-75
2022/09/06 00:47:09;;;;;;;;;;;;;;;20.08;76.46;101596.78;4990217;28;20452;-75
2022/09/06 00:49:37;;;;;;;;;;;;;;;20.06;76.51;101604.13;4977717;28;20439;-75
2022/09/06 00:52:03;;;;;;;;;;;;;;;20.04;76.46;101606.91;5008591;28;20016;-75
2022/09/06 00:54:29;;;;;;;;;;;;;;;20.02;77.24;101603.47;4977337;28;19929;-75
2022/09/06 00:56:54;;;;;;;;;;;;;;;20.01;77.07;101603.59;5010337;28;19941;-75
2022/09/06 00:59:20;;;;;;;;;;;;;;;20.01;77.23;101603.59;5007101;28;19965;-75
2022/09/06 01:01:45;;;;;;;;;;;;;;;19.99;77.47;101598.31;4991527;28;19992;-75
2022/09/06 01:04:10;;;;;;;;;;;;;;;19.99;77.70;101600.16;4978593;28;19942;-74
2022/09/06 01:06:42;;;;;;;;;;;;;;;19.97;77.69;101588.66;4975178;28;20025;-75
2022/09/06 01:09:13;;;;;;;;;;;;;;;19.95;77.91;101592.31;5006107;28;19972;-75
2022/09/06 01:12:01;;;;;;;;;;;;;;;19.94;77.79;101590.56;5008589;28;20028;-75
2022/09/06 01:14:30;;;;;;;;;;;;;;;19.92;77.64;101587.16;5008538;28;19996;-75
2022/09/06 01:17:16;;;;;;;;;;;;;;;19.90;78.08;101582.84;4975810;28;19937;-75
2022/09/06 01:19:55;;;;;;;;;;;;;;;19.88;77.95;101580.28;4989815;28;19937;-74
2022/09/06 01:22:23;;;;;;;;;;;;;;;19.85;78.44;101579.63;4988545;28;20028;-75
2022/09/06 01:24:51;;;;;;;;;;;;;;;19.83;78.66;101582.44;4976591;28;19925;-75
2022/09/06 01:27:26;;;;;;;;;;;;;;;19.80;78.51;101578.16;4978085;28;19926;-75
2022/09/06 01:29:51;;;;;;;;;;;;;;;19.79;78.81;101589.03;4976904;28;19929;-75
2022/09/06 01:32:37;;;;;;;;;;;;;;;19.78;79.00;101596.19;4976810;28;20375;-75
2022/09/06 01:35:10;;;;;;;;;;;;;;;19.76;79.27;101591.91;4975412;28;19930;-75
2022/09/06 01:37:35;;;;;;;;;;;;;;;19.75;79.94;101585.69;4990012;28;20265;-75
2022/09/06 01:40:00;;;;;;;;;;;;;;;19.73;80.69;101592.16;4989709;28;19929;-75
2022/09/06 01:42:27;;;;;;;;;;;;;;;19.69;81.03;101583.47;4976789;28;19937;-75
2022/09/06 01:44:54;;;;;;;;;;;;;;;19.66;80.92;101589.03;4986641;28;19930;-75
2022/09/06 01:47:38;;;;;;;;;;;;;;;19.64;81.64;101589.16;5009935;28;19937;-75
2022/09/06 01:50:04;;;;;;;;;;;;;;;19.61;81.48;101589.38;5006720;28;19937;-74
2022/09/06 01:52:34;;;;;;;;;;;;;;;19.59;81.67;101591.31;4976652;28;19918;-75
2022/09/06 01:55:21;;;;;;;;;;;;;;;19.57;81.79;101584.34;5008063;28;19929;-75
2022/09/06 01:58:07;;;;;;;;;;;;;;;19.55;81.85;101592.50;5009315;28;19956;-75
2022/09/06 02:00:34;;;;;;;;;;;;;;;19.51;81.23;101599.91;4991671;28;19996;-73
2022/09/06 02:03:08;;;;;;;;;;;;;;;19.49;80.65;101587.56;5012953;28;19926;-75
2022/09/06 02:05:36;;;;;;;;;;;;;;;19.47;80.54;101581.47;4979617;28;20363;-74
2022/09/06 02:08:04;;;;;;;;;;;;;;;19.45;80.65;101583.41;4994139;28;19933;-75
2022/09/06 02:10:31;;;;;;;;;;;;;;;19.41;80.79;101588.97;5010862;28;19929;-73
2022/09/06 02:12:56;;;;;;;;;;;;;;;19.38;81.10;101577.59;4993886;28;19972;-74
2022/09/06 02:15:26;;;;;;;;;;;;;;;19.36;81.23;101575.06;4992057;28;19929;-74
2022/09/06 02:17:52;;;;;;;;;;;;;;;19.34;81.93;101576.13;4993989;28;19934;-74
2022/09/06 02:20:19;;;;;;;;;;;;;;;19.31;82.01;101570.94;4990556;28;19926;-75
2022/09/06 02:22:45;;;;;;;;;;;;;;;19.29;82.38;101581.81;5012504;28;20024;-74
2022/09/06 02:25:14;;;;;;;;;;;;;;;19.27;82.05;101581.06;4992850;28;19929;-74
2022/09/06 02:27:39;;;;;;;;;;;;;;;19.24;81.78;101570.56;4992437;28;19985;-74
2022/09/06 02:30:05;;;;;;;;;;;;;;;19.21;81.94;101573.44;4979010;28;20358;-74
2022/09/06 02:32:31;;;;;;;;;;;;;;;19.18;82.28;101566.44;4981583;28;19989;-75
2022/09/06 02:34:57;;;;;;;;;;;;;;;19.17;82.56;101571.94;4991523;28;19926;-74
2022/09/06 02:37:24;;;;;;;;;;;;;;;19.12;82.72;101567.75;4987150;28;20180;-74
2022/09/06 02:39:50;;;;;;;;;;;;;;;19.11;82.83;101562.50;4979016;28;19955;-74
2022/09/06 02:42:18;;;;;;;;;;;;;;;19.07;82.40;101559.16;4992318;28;20389;-74
2022/09/06 02:44:43;;;;;;;;;;;;;;;19.06;82.53;101561.97;4994805;28;20056;-74
2022/09/06 02:47:09;;;;;;;;;;;;;;;19.02;82.37;101558.66;4979074;28;20412;-74
2022/09/06 02:49:34;;;;;;;;;;;;;;;19.00;82.41;101569.44;4981210;28;19936;-74
2022/09/06 02:52:00;;;;;;;;;;;;;;;18.98;82.60;101562.47;4978863;28;19930;-74
2022/09/06 02:54:25;;;;;;;;;;;;;;;18.95;83.07;101560.03;5012584;28;19930;-75
2022/09/06 02:56:51;;;;;;;;;;;;;;;18.92;82.71;101565.59;4975671;28;19929;-74
2022/09/06 02:59:16;;;;;;;;;;;;;;;18.89;82.82;101555.91;5011283;28;19934;-75
2022/09/06 03:01:41;;;;;;;;;;;;;;;18.89;82.81;101560.44;4976089;28;20427;-74
2022/09/06 03:04:07;;;;;;;;;;;;;;;18.85;82.97;101557.97;4980859;28;19934;-75
2022/09/06 03:06:33;;;;;;;;;;;;;;;18.83;82.96;101559.03;4979951;28;19980;-74
2022/09/06 03:08:59;;;;;;;;;;;;;;;18.82;83.09;101560.00;4979107;28;19934;-74
2022/09/06 03:11:24;;;;;;;;;;;;;;;18.81;83.00;101553.78;4978726;28;19945;-74
2022/09/06 03:13:51;;;;;;;;;;;;;;;18.79;83.38;101550.34;4994111;28;19926;-75
2022/09/06 03:16:17;;;;;;;;;;;;;;;18.78;83.65;101550.47;4978523;28;19953;-75
2022/09/06 03:18:42;;;;;;;;;;;;;;;18.76;83.36;101547.88;5011433;28;20562;-75
2022/09/06 03:21:07;;;;;;;;;;;;;;;18.73;83.46;101530.19;4979162;28;20071;-75
2022/09/06 03:23:33;;;;;;;;;;;;;;;18.73;83.40;101548.94;4978296;28;19937;-75
2022/09/06 03:25:58;;;;;;;;;;;;;;;18.71;83.72;101536.59;4978657;28;19987;-75
2022/09/06 03:28:24;;;;;;;;;;;;;;;18.69;83.80;101528.66;5011059;28;19934;-75
2022/09/06 03:30:50;;;;;;;;;;;;;;;18.69;83.69;101549.28;5009791;28;19929;-75
2022/09/06 03:33:15;;;;;;;;;;;;;;;18.68;83.67;101542.19;4977501;28;20421;-75
2022/09/06 03:35:47;;;;;;;;;;;;;;;18.68;83.83;101542.19;4995171;28;19925;-75
2022/09/06 03:38:13;;;;;;;;;;;;;;;18.67;83.90;101540.44;4979261;28;19930;-75
2022/09/06 03:40:38;;;;;;;;;;;;;;;18.67;83.50;101545.81;4977111;28;19929;-75
2022/09/06 03:43:04;;;;;;;;;;;;;;;18.66;83.73;101554.81;4978100;28;20388;-75
2022/09/06 03:45:29;;;;;;;;;;;;;;;18.64;83.48;101554.09;4991289;28;20432;-74
2022/09/06 03:47:54;;;;;;;;;;;;;;;18.63;83.69;101552.38;4980092;28;19976;-74
2022/09/06 03:50:20;;;;;;;;;;;;;;;18.62;83.61;101556.88;4991928;28;19934;-74
2022/09/06 03:52:45;;;;;;;;;;;;;;;18.62;83.93;101551.50;5011412;28;19926;-75
2022/09/06 03:55:10;;;;;;;;;;;;;;;18.61;84.14;101559.66;4977022;28;19988;-75
2022/09/06 03:57:36;;;;;;;;;;;;;;;18.60;84.72;101556.13;5011618;28;19929;-75
2022/09/06 04:00:03;;;;;;;;;;;;;;;18.59;85.46;101559.78;4970973;28;19934;-76
2022/09/06 04:02:28;;;;;;;;;;;;;;;18.58;85.42;101560.75;5009936;28;20377;-74
2022/09/06 04:04:54;;;;;;;;;;;;;;;18.55;86.38;101563.59;4978132;28;20116;-75
2022/09/06 04:07:20;;;;;;;;;;;;;;;18.52;87.90;101585.28;4993557;28;19976;-75
2022/09/06 04:09:45;;;;;;;;;;;;;;;18.50;88.82;101579.13;4976295;28;20570;-75
2022/09/06 04:12:11;;;;;;;;;;;;;;;18.45;90.36;101579.47;4990896;28;19941;-74
2022/09/06 04:14:36;;;;;;;;;;;;;;;18.38;90.43;101575.47;4978988;28;20429;-74
2022/09/06 04:17:02;;;;;;;;;;;;;;;18.32;91.79;101582.97;4991282;28;19940;-75
2022/09/06 04:19:27;;;;;;;;;;;;;;;18.27;91.88;101581.56;4993919;28;19940;-74
2022/09/06 04:21:52;;;;;;;;;;;;;;;18.16;91.31;101577.78;4979033;28;19948;-76
2022/09/06 04:24:18;;;;;;;;;;;;;;;18.07;91.13;101572.19;4976968;28;19939;-75
2022/09/06 04:26:44;;;;;;;;;;;;;;;17.98;91.32;101565.56;4991430;28;20068;-75
2022/09/06 04:29:09;;;;;;;;;;;;;;;17.90;92.43;101566.94;4978537;28;20503;-75
2022/09/06 04:31:35;;;;;;;;;;;;;;;17.82;92.17;101574.56;4977684;28;19975;-75
2022/09/06 04:34:00;;;;;;;;;;;;;;;17.73;92.23;101583.22;4989876;28;19929;-75
2022/09/06 04:36:25;;;;;;;;;;;;;;;17.63;93.59;101581.13;4978717;28;19974;-74
2022/09/06 04:38:51;;;;;;;;;;;;;;;17.52;93.49;101580.94;4978158;28;20080;-75
2022/09/06 04:41:17;;;;;;;;;;;;;;;17.45;92.46;101590.31;4976834;28;19986;-75
2022/09/06 04:43:43;;;;;;;;;;;;;;;17.37;92.20;101582.78;5009134;28;20042;-75
2022/09/06 04:46:15;;;;;;;;;;;;;;;17.33;93.30;101581.25;4991327;28;19925;-74
2022/09/06 04:48:40;;;;;;;;;;;;;;;17.23;91.98;101576.47;5010218;28;19925;-74
2022/09/06 04:51:05;;;;;;;;;;;;;;;17.16;91.54;101569.78;5010626;28;20270;-74
2022/09/06 04:53:31;;;;;;;;;;;;;;;17.13;93.31;101569.97;4977330;28;19926;-74
2022/09/06 04:55:56;;;;;;;;;;;;;;;17.10;95.06;101573.69;4977030;28;20020;-74
2022/09/06 04:58:22;;;;;;;;;;;;;;;17.07;95.42;101576.59;4976651;28;19925;-75
2022/09/06 05:00:47;;;;;;;;;;;;;;;17.06;97.21;101580.19;4975896;28;19972;-75
2022/09/06 05:03:13;;;;;;;;;;;;;;;17.03;96.75;101580.38;4973176;28;20020;-74
2022/09/06 05:05:38;;;;;;;;;;;;;;;17.03;98.52;101590.22;4993463;28;20309;-74
2022/09/06 05:08:03;;;;;;;;;;;;;;;17.04;98.84;101591.94;4976493;28;19925;-75
2022/09/06 05:10:29;;;;;;;;;;;;;;;17.04;99.50;101587.44;4978169;28;20305;-74
2022/09/06 05:12:55;;;;;;;;;;;;;;;17.04;98.77;101590.13;4977442;28;19929;-74
2022/09/06 05:15:21;;;;;;;;;;;;;;;17.04;98.75;101584.78;4974977;28;19999;-75
2022/09/06 05:17:46;;;;;;;;;;;;;;;17.06;98.92;101584.69;5007142;28;19926;-74
2022/09/06 05:20:12;;;;;;;;;;;;;;;17.07;99.17;101581.06;5007709;28;20454;-75
2022/09/06 05:22:38;;;;;;;;;;;;;;;17.06;98.90;101579.34;5008224;28;19930;-73
2022/09/06 05:25:03;;;;;;;;;;;;;;;17.05;99.68;101583.81;5007326;28;20007;-74
2022/09/06 05:27:29;;;;;;;;;;;;;;;17.05;99.54;101585.66;4975945;28;19937;-73
2022/09/06 05:29:54;;;;;;;;;;;;;;;17.07;98.94;101578.38;4976809;28;20442;-73
2022/09/06 05:32:20;;;;;;;;;;;;;;;17.07;98.31;101583.72;4975702;28;20573;-73
2022/09/06 05:34:45;;;;;;;;;;;;;;;17.08;98.03;101585.44;4988550;28;19938;-73
2022/09/06 05:37:10;;;;;;;;;;;;;;;17.06;97.45;101585.53;4977833;28;20600;-73
2022/09/06 05:39:36;;;;;;;;;;;;;;;17.09;99.12;101587.16;5008323;28;20012;-73
2022/09/06 05:42:05;;;;;;;;;;;;;;;17.07;98.83;101584.59;4976002;28;20663;-73
2022/09/06 05:44:33;;;;;;;;;;;;;;;17.08;99.18;101582.78;4976929;28;20608;-73
2022/09/06 05:46:59;;;;;;;;;;;;;;;17.09;98.93;101582.69;5005884;28;19941;-73
2022/09/06 05:49:24;;;;;;;;;;;;;;;17.10;99.47;101575.50;4973070;28;20363;-74
2022/09/06 05:51:51;;;;;;;;;;;;;;;17.10;98.85;101573.69;4977040;28;19973;-74
2022/09/06 05:54:16;;;;;;;;;;;;;;;17.10;98.97;101581.72;4988864;28;20073;-75
2022/09/06 05:56:42;;;;;;;;;;;;;;;17.10;99.60;101562.13;4976006;28;19929;-74
2022/09/06 05:59:07;;;;;;;;;;;;;;;17.11;99.52;101563.88;4975731;28;19940;-74
2022/09/06 06:01:33;;;;;;;;;;;;;;;17.09;99.62;101571.09;4975197;28;19930;-74
2022/09/06 06:03:59;;;;;;;;;;;;;;;17.07;99.84;101570.34;5008476;28;19926;-74
2022/09/06 06:06:25;;;;;;;;;;;;;;;17.05;99.30;101574.94;4990759;28;20416;-74
2022/09/06 06:08:51;;;;;;;;;;;;;;;17.05;100.00;101578.47;4975444;28;19947;-74
2022/09/06 06:11:16;;;;;;;;;;;;;;;17.04;100.00;101587.44;4977282;28;19934;-74
2022/09/06 06:13:42;;;;;;;;;;;;;;;17.03;100.00;101584.88;4978237;28;20017;-74
2022/09/06 06:16:08;;;;;;;;;;;;;;;17.04;100.00;101586.56;4989088;28;19961;-74
2022/09/06 06:18:34;;;;;;;;;;;;;;;17.04;100.00;101584.78;4990282;28;19930;-74
2022/09/06 06:21:15;;;;;;;;;;;;;;;17.04;100.00;101579.44;4989769;28;19932;-74
2022/09/06 06:23:41;;;;;;;;;;;;;;;17.05;100.00;101575.78;4973076;28;19930;-74
2022/09/06 06:26:10;;;;;;;;;;;;;;;17.06;100.00;101580.19;4988788;28;20475;-74
2022/09/06 06:28:36;;;;;;;;;;;;;;;17.06;100.00;101574.00;4988128;28;19996;-74
2022/09/06 06:31:02;;;;;;;;;;;;;;;17.08;100.00;101580.09;4977567;28;19925;-74
2022/09/06 06:33:28;;;;;;;;;;;;;;;17.11;100.00;101577.25;4990544;28;19925;-74
2022/09/06 06:36:00;;;;;;;;;;;;;;;17.15;100.00;101573.41;5007826;28;20435;-74
2022/09/06 06:38:33;;;;;;;;;;;;;;;17.20;100.00;101582.03;4975894;28;20119;-75
2022/09/06 06:40:59;;;;;;;;;;;;;;;17.26;100.00;101586.13;4987725;28;20124;-75
2022/09/06 06:43:24;;;;;;;;;;;;;;;17.33;100.00;101578.59;5010349;28;19934;-90
2022/09/06 06:45:50;;;;;;;;;;;;;;;17.37;99.76;101577.41;5008229;28;19968;-74
2022/09/06 06:48:15;;;;;;;;;;;;;;;17.42;100.00;101572.63;4978621;28;19976;-74
2022/09/06 06:50:44;;;;;;;;;;;;;;;17.53;100.00;101579.16;4994986;28;19937;-74
2022/09/06 06:53:09;;;;;;;;;;;;;;;17.58;99.91;101575.22;5010192;28;20358;-75
2022/09/06 06:55:35;;;;;;;;;;;;;;;17.58;99.47;101574.34;4981478;28;20022;-83
2022/09/06 06:58:03;;;;;;;;;;;;;;;17.57;98.74;101568.16;4996781;28;19948;-82
2022/09/06 07:00:32;;;;;;;;;;;;;;;17.56;98.33;101574.47;5011591;28;20320;-83
2022/09/06 07:02:58;;;;;;;;;;;;;;;17.61;98.18;101579.50;4994250;28;19952;-83
2022/09/06 07:05:25;;;;;;;;;;;;;;;17.69;99.38;101576.34;4995194;28;19933;-82
2022/09/06 07:07:50;;;;;;;;;;;;;;;17.74;98.83;101559.03;4982607;28;20053;-84
2022/09/06 07:10:16;;;;;;;;;;;;;;;17.82;98.05;101557.66;4981096;28;20407;-81
2022/09/06 07:12:44;;;;;;;;;;;;;;;17.89;97.07;101559.84;4982376;28;20541;-82
2022/09/06 07:15:09;;;;;;;;;;;;;;;17.98;97.62;101554.84;4980515;28;20020;-82
2022/09/06 07:17:35;;;;;;;;;;;;;;;18.07;97.60;101553.41;4982645;28;20224;-82
2022/09/06 07:20:01;;;;;;;;;;;;;;;18.17;98.11;101547.34;5013560;28;19961;-82
2022/09/06 07:22:26;;;;;;;;;;;;;;;18.31;98.33;101557.13;4992107;28;19937;-82
2022/09/06 07:24:51;;;;;;;;;;;;;;;18.41;97.40;101561.88;5015940;28;19965;-83
2022/09/06 07:27:17;;;;;;;;;;;;;;;18.48;97.08;101571.22;4983392;28;20262;-82
2022/09/06 07:29:42;;;;;;;;;;;;;;;18.52;97.62;101567.34;5020531;28;19940;-83
2022/09/06 07:32:08;;;;;;;;;;;;;;;18.53;97.34;101563.69;4985266;28;20380;-81
2022/09/06 07:34:38;;;;;;;;;;;;;;;18.57;97.44;101567.91;4981401;28;20039;-81
2022/09/06 07:37:04;;;;;;;;;;;;;;;18.61;97.27;101568.56;4993494;28;20332;-81
2022/09/06 07:39:31;;;;;;;;;;;;;;;18.65;96.63;101570.06;5013406;28;19988;-74
2022/09/06 07:41:57;;;;;;;;;;;;;;;18.69;97.10;101565.34;4978414;28;19930;-74
2022/09/06 07:44:22;;;;;;;;;;;;;;;18.71;96.87;101563.41;4979276;28;21606;-74
2022/09/06 07:46:48;;;;;;;;;;;;;;;18.74;97.04;101573.94;4980601;28;20407;-75
2022/09/06 07:49:13;;;;;;;;;;;;;;;18.76;96.05;101573.81;4981148;28;20604;-74
2022/09/06 07:51:39;;;;;;;;;;;;;;;18.78;96.92;101570.06;4980787;28;19934;-74
2022/09/06 07:54:05;;;;;;;;;;;;;;;18.81;97.11;101575.25;4980875;28;19934;-74
2022/09/06 07:56:31;;;;;;;;;;;;;;;18.87;97.89;101573.97;4981007;28;19925;-75
2022/09/06 07:58:56;;;;;;;;;;;;;;;18.93;97.02;101562.81;4979974;28;20422;-75
2022/09/06 08:01:33;;;;;;;;;;;;;;;19.03;96.79;101568.41;4980157;28;20572;-75
2022/09/06 08:04:01;;;;;;;;;;;;;;;19.16;97.08;101565.72;5008724;28;20490;-75
2022/09/06 08:06:28;;;;;;;;;;;;;;;19.28;96.67;101569.34;5012132;28;20411;-75
2022/09/06 08:08:54;;;;;;;;;;;;;;;19.41;96.13;101572.03;5012052;28;20005;-74
2022/09/06 08:11:19;;;;;;;;;;;;;;;19.53;95.73;101567.59;4992862;28;20018;-74
2022/09/06 08:13:48;;;;;;;;;;;;;;;19.70;95.45;101565.50;5012351;28;19926;-74
2022/09/06 08:16:15;;;;;;;;;;;;;;;19.86;94.06;101559.84;4980036;28;20464;-74
2022/09/06 08:18:43;;;;;;;;;;;;;;;20.01;92.95;101565.97;4980192;28;19984;-75
2022/09/06 08:21:10;;;;;;;;;;;;;;;20.16;93.10;101561.28;4980688;28;19930;-74
2022/09/06 08:23:36;;;;;;;;;;;;;;;20.29;92.80;101561.19;5010615;28;20021;-74
2022/09/06 08:26:01;;;;;;;;;;;;;;;20.43;92.43;101566.38;4980315;28;20553;-74
2022/09/06 08:28:27;;;;;;;;;;;;;;;20.56;91.16;101554.69;5011484;28;19925;-74
2022/09/06 08:30:52;;;;;;;;;;;;;;;20.63;90.03;101554.09;4980036;28;19929;-73
2022/09/06 08:33:20;;;;;;;;;;;;;;;20.74;90.20;101555.09;4979797;28;19930;-74
2022/09/06 08:35:58;;;;;;;;;;;;;;;20.84;89.55;101556.13;4980947;28;20293;-74
2022/09/06 08:38:23;;;;;;;;;;;;;;;20.92;89.63;101547.44;5011251;28;20017;-74
2022/09/06 08:40:49;;;;;;;;;;;;;;;21.03;90.02;101547.47;4978465;28;19930;-74
2022/09/06 08:43:16;;;;;;;;;;;;;;;21.16;89.01;101557.25;5010038;28;19925;-74
2022/09/06 08:45:42;;;;;;;;;;;;;;;21.24;88.29;101549.41;4979400;28;19929;-74
2022/09/06 08:48:07;;;;;;;;;;;;;;;21.32;87.95;101564.09;4991623;28;19934;-74
2022/09/06 08:50:33;;;;;;;;;;;;;;;21.43;87.45;101556.03;4979204;28;19930;-74
2022/09/06 08:53:02;;;;;;;;;;;;;;;21.49;87.48;101551.97;4975766;28;19934;-75
2022/09/06 08:55:35;;;;;;;;;;;;;;;21.51;87.59;101553.56;4968642;28;20404;-74
2022/09/06 08:58:19;;;;;;;;;;;;;;;21.59;87.06;101555.66;4979553;28;19933;-75
2022/09/06 09:00:57;;;;;;;;;;;;;;;21.68;86.39;101548.66;4979272;28;20675;-75
2022/09/06 09:03:28;;;;;;;;;;;;;;;21.81;86.28;101554.78;4988569;28;19937;-74
2022/09/06 09:05:54;;;;;;;;;;;;;;;21.94;85.88;101557.31;4978438;28;19937;-75
2022/09/06 09:08:26;;;;;;;;;;;;;;;22.13;85.32;101563.00;4992251;28;19930;-75
2022/09/06 09:10:52;;;;;;;;;;;;;;;22.29;83.58;101563.44;4991491;28;19953;-75
2022/09/06 09:13:27;;;;;;;;;;;;;;;22.45;83.77;101552.16;4978640;28;19926;-75
2022/09/06 09:15:52;;;;;;;;;;;;;;;22.58;82.98;101557.41;5010676;28;19926;-75
2022/09/06 09:18:20;;;;;;;;;;;;;;;22.69;82.29;101559.19;4994968;28;19930;-74
2022/09/06 09:20:45;;;;;;;;;;;;;;;22.83;81.81;101555.31;5010945;28;19936;-75
2022/09/06 09:23:14;;;;;;;;;;;;;;;22.95;81.02;101557.91;5007692;28;19952;-75
2022/09/06 09:25:39;;;;;;;;;;;;;;;23.02;80.40;101553.69;4979546;28;20361;-75
2022/09/06 09:28:05;;;;;;;;;;;;;;;23.08;80.75;101550.44;5010722;28;19972;-75
2022/09/06 09:30:44;;;;;;;;;;;;;;;23.15;80.17;101557.00;5010035;28;19996;-75
2022/09/06 09:33:28;;;;;;;;;;;;;;;23.18;79.62;101553.19;5009818;28;19972;-75
2022/09/06 09:35:54;;;;;;;;;;;;;;;23.12;79.39;101553.72;4979095;28;20013;-75
2022/09/06 09:38:21;;;;;;;;;;;;;;;23.13;79.26;101553.59;4987505;28;19940;-81
2022/09/06 09:40:54;;;;;;;;;;;;;;;23.18;80.13;101548.66;5010518;28;19932;-81
2022/09/06 09:43:20;;;;;;;;;;;;;;;23.24;79.55;101547.25;4992434;28;20503;-80
2022/09/06 09:45:48;;;;;;;;;;;;;;;23.26;78.81;101541.72;4979872;28;20009;-82
2022/09/06 09:48:23;;;;;;;;;;;;;;;23.29;79.08;101541.44;5008309;28;20976;-81
2022/09/06 09:50:48;;;;;;;;;;;;;;;23.31;79.50;101547.59;4980467;28;19929;-82
2022/09/06 09:53:16;;;;;;;;;;;;;;;23.32;79.11;101544.75;5011901;28;19937;-80
2022/09/06 09:55:41;;;;;;;;;;;;;;;23.33;78.20;101529.41;4979139;28;20057;-81
2022/09/06 09:58:25;;;;;;;;;;;;;;;23.36;78.87;101533.69;4978388;28;19930;-83
2022/09/06 10:01:07;;;;;;;;;;;;;;;23.36;77.95;101531.81;4980032;28;20056;-81
2022/09/06 10:03:33;;;;;;;;;;;;;;;23.36;78.51;101528.28;5008967;28;20377;-81
2022/09/06 10:06:01;;;;;;;;;;;;;;;23.35;78.02;101526.56;4979011;28;19933;-81
2022/09/06 10:08:26;;;;;;;;;;;;;;;23.34;77.94;101525.72;4991119;28;19937;-75
2022/09/06 10:10:52;;;;;;;;;;;;;;;23.30;78.07;101535.06;4977812;28;19930;-75
2022/09/06 10:13:20;;;;;;;;;;;;;;;23.30;77.57;101526.97;4978684;28;19925;-75
2022/09/06 10:15:46;;;;;;;;;;;;;;;23.33;77.80;101526.69;4978722;28;19930;-74
2022/09/06 10:18:27;;;;;;;;;;;;;;;23.41;76.21;101526.88;5009803;28;20389;-74
2022/09/06 10:20:53;;;;;;;;;;;;;;;23.48;75.47;101529.00;4992689;28;20444;-74
2022/09/06 10:23:25;;;;;;;;;;;;;;;23.50;75.84;101527.03;4994892;28;19930;-74
2022/09/06 10:25:50;;;;;;;;;;;;;;;23.51;75.14;101518.78;4982722;28;19936;-74
2022/09/06 10:28:20;;;;;;;;;;;;;;;23.59;75.12;101512.69;4982122;28;19930;-74
2022/09/06 10:30:52;;;;;;;;;;;;;;;23.59;75.47;101502.72;4993003;28;19932;-75
2022/09/06 10:33:25;;;;;;;;;;;;;;;23.57;75.27;101502.03;5013591;28;20057;-74
2022/09/06 10:35:51;;;;;;;;;;;;;;;23.55;75.21;101495.03;4981240;28;19973;-75
2022/09/06 10:38:32;;;;;;;;;;;;;;;23.58;75.22;101501.03;4994094;28;20360;-75
2022/09/06 10:41:15;;;;;;;;;;;;;;;23.60;74.61;101503.59;4981189;28;19934;-74
2022/09/06 10:43:47;;;;;;;;;;;;;;;23.62;74.68;101490.78;4982585;28;19933;-75
2022/09/06 10:46:20;;;;;;;;;;;;;;;23.64;75.15;101477.97;4980155;28;19929;-75
2022/09/06 10:48:46;;;;;;;;;;;;;;;23.70;74.83;101490.09;4996155;28;19933;-75
2022/09/06 10:51:19;;;;;;;;;;;;;;;23.74;74.54;101486.09;4996790;28;20518;-75
2022/09/06 10:53:45;;;;;;;;;;;;;;;23.79;73.97;101475.72;5013108;28;19997;-75
2022/09/06 10:56:17;;;;;;;;;;;;;;;23.81;73.35;101484.53;5013012;28;20020;-75
2022/09/06 10:58:49;;;;;;;;;;;;;;;23.84;73.52;101489.66;5010990;28;20014;-76
2022/09/06 11:01:26;;;;;;;;;;;;;;;23.88;73.79;101491.06;4979456;28;19930;-75
2022/09/06 11:03:52;;;;;;;;;;;;;;;23.88;73.46;101484.84;4994348;28;19930;-75
2022/09/06 11:06:17;;;;;;;;;;;;;;;23.91;73.25;101483.69;5013394;28;21010;-75
2022/09/06 11:09:01;;;;;;;;;;;;;;;23.98;73.32;101482.13;4994235;28;20590;-74
2022/09/06 11:11:34;;;;;;;;;;;;;;;24.03;72.73;101476.28;5013123;28;20557;-74
2022/09/06 11:14:01;;;;;;;;;;;;;;;24.08;72.61;101474.03;4993806;28;20016;-74
2022/09/06 11:16:27;;;;;;;;;;;;;;;24.12;72.82;101476.31;4991926;28;19934;-74
2022/09/06 11:18:59;;;;;;;;;;;;;;;24.16;71.91;101474.16;4994165;28;20344;-79
2022/09/06 11:21:34;;;;;;;;;;;;;;;24.14;71.67;101468.06;4981020;28;19972;-80
2022/09/06 11:24:04;;;;;;;;;;;;;;;24.17;72.49;101475.88;4981782;28;19948;-80
2022/09/06 11:26:41;;;;;;;;;;;;;;;24.24;69.86;101474.28;4996194;28;19936;-79
2022/09/06 11:29:08;;;;;;;;;;;;;;;24.33;68.69;101471.72;4984470;28;19949;-81
2022/09/06 11:31:35;;;;;;;;;;;;;;;24.38;68.72;101464.00;5003964;28;19926;-80
2022/09/06 11:34:08;;;;;;;;;;;;;;;24.34;68.42;101471.56;5022892;28;19926;-81
2022/09/06 11:36:36;;;;;;;;;;;;;;;24.35;68.14;101470.56;4995036;28;19937;-80
2022/09/06 11:39:02;;;;;;;;;;;;;;;24.45;68.39;101467.00;4982777;28;19956;-80
2022/09/06 11:41:35;;;;;;;;;;;;;;;24.47;67.27;101473.97;4977865;28;20455;-79
2022/09/06 11:44:01;;;;;;;;;;;;;;;24.56;67.14;101469.53;5013787;28;19965;-80
2022/09/06 11:46:33;;;;;;;;;;;;;;;24.63;67.66;101461.69;5012037;28;19976;-81
2022/09/06 11:49:00;;;;;;;;;;;;;;;24.63;67.63;101458.97;4982014;28;19996;-80
2022/09/06 11:51:30;;;;;;;;;;;;;;;24.72;67.18;101457.22;4987603;28;20607;-80
2022/09/06 11:53:56;;;;;;;;;;;;;;;24.80;66.96;101458.22;4981744;28;19929;-80
2022/09/06 11:56:27;;;;;;;;;;;;;;;24.87;66.46;101463.88;4991011;28;19933;-74
2022/09/06 11:58:55;;;;;;;;;;;;;;;24.87;67.00;101461.19;5011177;28;19936;-74
2022/09/06 12:01:23;;;;;;;;;;;;;;;24.81;66.61;101457.22;4992343;28;20385;-74
2022/09/06 12:03:54;;;;;;;;;;;;;;;24.87;65.25;101463.88;4980629;28;19930;-74
2022/09/06 12:06:26;;;;;;;;;;;;;;;24.98;65.01;101460.13;4980521;28;19929;-74
2022/09/06 12:08:52;;;;;;;;;;;;;;;25.11;64.62;101453.53;5011624;28;19930;-74
2022/09/06 12:11:23;;;;;;;;;;;;;;;25.22;64.21;101461.44;5011956;28;19984;-74
2022/09/06 12:13:52;;;;;;;;;;;;;;;25.34;64.84;101462.06;4980488;28;19936;-74
2022/09/06 12:16:17;;;;;;;;;;;;;;;25.42;64.04;101458.59;4992310;28;20404;-73
2022/09/06 12:18:46;;;;;;;;;;;;;;;25.48;63.96;101466.09;4992944;28;19922;-74
2022/09/06 12:21:41;;;;;;;;;;;;;;;25.56;64.04;101473.50;5011792;28;19930;-74
2022/09/06 12:24:25;;;;;;;;;;;;;;;25.71;63.00;101468.41;4975263;28;19960;-83
2022/09/06 12:26:53;;;;;;;;;;;;;;;25.78;62.77;101480.34;4973625;28;19930;-82
2022/09/06 12:29:25;;;;;;;;;;;;;;;25.78;61.53;101472.22;5012516;28;19929;-83
2022/09/06 12:31:54;;;;;;;;;;;;;;;25.79;61.46;101471.19;4992753;28;20608;-83
2022/09/06 12:34:27;;;;;;;;;;;;;;;25.85;61.30;101473.28;4996799;28;20436;-83
2022/09/06 12:36:55;;;;;;;;;;;;;;;25.89;61.61;101474.66;4981870;28;19929;-82
2022/09/06 12:39:20;;;;;;;;;;;;;;;25.90;61.77;101470.09;5012538;28;19929;-83